Time;durP1;ratioP1;P1;durP2;ratioP2;P2;SDS_P1;SDS_P2;PMS_P1;PMS_P2;Temp;Humidity;BMP_temperature;BMP_pressure;BME280_temperature;BME280_humidity;BME280_pressure;Samples;Min_cycle;Max_cycle;Signal;HPM_P1;HPM_P2
2023/04/04 00:00:48;;;;;;;3.40;2.10;;;;;;;;;;4981741;28;20153;-70
2023/04/04 00:03:14;;;;;;;6.63;2.58;;;;;;;;;;4998688;28;20056;-70
2023/04/04 00:05:40;;;;;;;5.35;2.85;;;;;;;;;;4981357;28;20756;-70
2023/04/04 00:08:06;;;;;;;6.15;2.50;;;;;;;;;;4995017;28;20570;-70
2023/04/04 00:10:32;;;;;;;3.17;2.17;;;;;;;;;;4986497;28;20077;-70
2023/04/04 00:12:58;;;;;;;5.32;2.78;;;;;;;;;;5001077;28;20716;-71
2023/04/04 00:15:24;;;;;;;3.50;2.58;;;;;;;;;;4985152;28;20144;-70
2023/04/04 00:17:50;;;;;;;5.85;2.70;;;;;;;;;;4997489;28;20526;-70
2023/04/04 00:20:16;;;;;;;4.88;2.50;;;;;;;;;;4969929;28;20077;-71
2023/04/04 00:22:42;;;;;;;6.78;2.95;;;;;;;;;;4972764;28;20507;-70
2023/04/04 00:25:09;;;;;;;4.32;2.45;;;;;;;;;;4975993;28;20042;-70
2023/04/04 00:27:35;;;;;;;2.80;2.20;;;;;;;;;;4976323;28;20042;-70
2023/04/04 00:30:01;;;;;;;6.05;2.17;;;;;;;;;;4973791;28;20452;-71
2023/04/04 00:32:27;;;;;;;2.42;2.20;;;;;;;;;;5004881;28;20046;-70
2023/04/04 00:34:53;;;;;;;4.45;2.17;;;;;;;;;;4977491;28;20873;-70
2023/04/04 00:37:20;;;;;;;2.35;1.95;;;;;;;;;;4980643;28;20117;-70
2023/04/04 00:39:46;;;;;;;3.40;1.92;;;;;;;;;;4972613;28;20082;-71
2023/04/04 00:42:12;;;;;;;4.25;2.28;;;;;;;;;;4984177;28;20050;-70
2023/04/04 00:44:38;;;;;;;3.63;2.50;;;;;;;;;;4976097;28;20091;-70
2023/04/04 00:47:04;;;;;;;5.50;2.92;;;1.50;99.90;;;;;;4981970;28;20606;-70
2023/04/04 00:49:30;;;;;;;6.90;3.05;;;;;;;;;;4978187;28;20050;-70
2023/04/04 00:51:56;;;;;;;3.90;2.55;;;;;;;;;;4977071;28;20053;-70
2023/04/04 00:54:22;;;;;;;5.38;2.92;;;;;;;;;;4995790;28;20042;-70
2023/04/04 00:56:53;;;;;;;5.93;2.88;;;;;;;;;;4975192;28;20049;-70
2023/04/04 00:59:20;;;;;;;5.43;2.72;;;;;;;;;;4978340;28;20133;-71
2023/04/04 01:01:46;;;;;;;4.95;2.83;;;;;;;;;;4984791;28;20046;-71
2023/04/04 01:04:12;;;;;;;9.00;2.60;;;;;;;;;;4979075;28;20050;-70
2023/04/04 01:06:38;;;;;;;6.22;3.13;;;;;;;;;;4956921;28;20088;-70
2023/04/04 01:09:05;;;;;;;5.97;3.10;;;;;;;;;;4975174;28;20092;-70
2023/04/04 01:11:31;;;;;;;5.68;2.97;;;;;;;;;;4970877;28;20080;-69
2023/04/04 01:13:57;;;;;;;4.05;2.67;;;;;;;;;;4976473;28;20046;-70
2023/04/04 01:16:24;;;;;;;6.88;3.40;;;;;;;;;;4974294;28;20522;-70
2023/04/04 01:18:50;;;;;;;3.55;2.88;;;;;;;;;;4973545;28;20112;-70
2023/04/04 01:21:18;;;;;;;7.22;2.70;;;;;;;;;;4970683;28;20069;-70
2023/04/04 01:24:02;;;;;;;5.55;2.92;;;1.10;99.90;;;;;;4973192;28;20448;-70
2023/04/04 01:26:28;;;;;;;5.20;2.92;;;;;;;;;;4979660;28;20046;-70
2023/04/04 01:28:55;;;;;;;4.85;2.80;;;;;;;;;;4972229;28;20042;-70
2023/04/04 01:31:25;;;;;;;7.60;3.08;;;;;;;;;;4970381;28;20058;-70
2023/04/04 01:34:17;;;;;;;5.55;3.38;;;1.20;99.90;;;;;;4982409;28;20050;-70
2023/04/04 01:36:48;;;;;;;6.75;3.40;;;;;;;;;;4979824;28;20053;-70
2023/04/04 01:39:21;;;;;;;5.18;2.85;;;;;;;;;;4971767;28;20042;-70
2023/04/04 01:41:48;;;;;;;7.30;2.92;;;;;;;;;;4996387;28;20124;-70
2023/04/04 01:44:14;;;;;;;6.72;3.35;;;;;;;;;;4984224;28;20339;-70
2023/04/04 01:46:41;;;;;;;5.70;3.20;;;;;;;;;;4984650;28;20100;-70
2023/04/04 01:49:07;;;;;;;5.20;3.20;;;;;;;;;;4984559;28;20069;-70
2023/04/04 01:51:33;;;;;;;7.65;3.63;;;;;;;;;;5001085;28;20615;-70
2023/04/04 01:53:59;;;;;;;8.18;3.13;;;;;;;;;;4973610;28;20042;-70
2023/04/04 01:56:26;;;;;;;6.28;3.13;;;;;;;;;;4973537;28;20679;-70
2023/04/04 01:58:52;;;;;;;6.68;3.65;;;;;;;;;;4998550;28;20093;-70
2023/04/04 02:01:18;;;;;;;7.10;3.95;;;;;;;;;;4978100;28;20046;-70
2023/04/04 02:03:44;;;;;;;7.13;3.22;;;;;;;;;;4995772;28;20049;-71
2023/04/04 02:06:10;;;;;;;11.57;3.95;;;;;;;;;;4979325;28;20053;-71
2023/04/04 02:08:37;;;;;;;13.35;5.35;;;;;;;;;;4986094;28;20046;-70
2023/04/04 02:11:03;;;;;;;7.15;4.00;;;;;;;;;;4992256;28;20132;-71
2023/04/04 02:13:29;;;;;;;7.45;4.30;;;;;;;;;;4981806;28;20120;-70
2023/04/04 02:15:55;;;;;;;8.50;3.97;;;;;;;;;;4975675;28;20784;-70
2023/04/04 02:18:21;;;;;;;12.63;3.90;;;;;;;;;;4980296;28;20053;-69
2023/04/04 02:20:54;;;;;;;7.13;4.22;;;;;;;;;;4983045;28;20524;-70
2023/04/04 02:23:20;;;;;;;8.25;4.53;;;;;;;;;;4980594;28;20046;-70
2023/04/04 02:25:46;;;;;;;6.70;4.05;;;;;;;;;;4979971;28;20455;-69
2023/04/04 02:28:12;;;;;;;7.30;4.25;;;;;;;;;;4994194;28;20038;-69
2023/04/04 02:30:37;;;;;;;7.78;4.05;;;1.00;99.90;;;;;;4970112;28;20133;-69
2023/04/04 02:33:03;;;;;;;6.30;3.80;;;;;;;;;;4967442;28;20056;-70
2023/04/04 02:35:29;;;;;;;7.45;3.80;;;;;;;;;;4990829;28;20471;-69
2023/04/04 02:37:55;;;;;;;6.35;3.97;;;;;;;;;;4964686;28;20049;-69
2023/04/04 02:40:21;;;;;;;8.95;4.38;;;;;;;;;;4974847;28;20050;-69
2023/04/04 02:42:47;;;;;;;9.05;3.92;;;;;;;;;;4979628;28;20537;-70
2023/04/04 02:45:13;;;;;;;7.30;4.25;;;;;;;;;;4976467;28;20043;-69
2023/04/04 02:47:40;;;;;;;8.30;4.82;;;;;;;;;;4979697;28;20065;-70
2023/04/04 02:50:06;;;;;;;8.57;4.25;;;;;;;;;;4980991;28;20069;-69
2023/04/04 02:52:33;;;;;;;9.05;4.78;;;;;;;;;;4977718;28;20050;-69
2023/04/04 02:54:59;;;;;;;10.82;4.25;;;;;;;;;;4973715;28;20595;-70
2023/04/04 02:57:25;;;;;;;6.10;3.95;;;;;;;;;;4969993;28;20132;-70
2023/04/04 02:59:51;;;;;;;7.82;4.38;;;;;;;;;;4973573;28;20407;-69
2023/04/04 03:02:17;;;;;;;11.18;4.13;;;;;;;;;;4978262;28;20046;-69
2023/04/04 03:04:43;;;;;;;7.72;4.10;;;;;;;;;;4981729;28;20056;-69
2023/04/04 03:07:10;;;;;;;8.70;4.38;;;;;;;;;;4983268;28;20270;-69
2023/04/04 03:09:35;;;;;;;7.10;4.47;;;;;;;;;;4975523;28;20088;-69
2023/04/04 03:12:01;;;;;;;7.25;3.78;;;;;;;;;;4977114;28;20074;-69
2023/04/04 03:14:28;;;;;;;10.40;4.75;;;;;;;;;;4995300;28;20030;-69
2023/04/04 03:16:55;;;;;;;7.00;4.18;;;;;;;;;;4982612;28;20511;-70
2023/04/04 03:19:21;;;;;;;9.23;4.38;;;;;;;;;;4985305;28;20065;-69
2023/04/04 03:21:47;;;;;;;7.35;3.90;;;;;;;;;;4969898;28;21497;-69
2023/04/04 03:24:13;;;;;;;7.57;3.83;;;;;;;;;;4971990;28;20046;-69
2023/04/04 03:26:39;;;;;;;5.32;4.50;;;;;;;;;;4974229;28;20480;-69
2023/04/04 03:29:05;;;;;;;6.55;4.07;;;;;;;;;;4976851;28;20049;-70
2023/04/04 03:31:31;;;;;;;8.20;3.78;;;;;;;;;;4980113;28;20129;-69
2023/04/04 03:33:59;;;;;;;6.65;4.07;;;;;;;;;;4977431;28;20137;-69
2023/04/04 03:36:25;;;;;;;4.97;3.58;;;;;;;;;;4982198;28;20077;-70
2023/04/04 03:38:51;;;;;;;5.22;3.67;;;;;;;;;;4975437;28;20046;-71
2023/04/04 03:41:17;;;;;;;9.80;3.65;;;;;;;;;;4973056;28;20522;-70
2023/04/04 03:43:44;;;;;;;6.18;3.63;;;;;;;;;;4972129;28;20050;-69
2023/04/04 03:46:10;;;;;;;7.38;4.28;;;;;;;;;;4977949;28;20149;-69
2023/04/04 03:48:36;;;;;;;5.78;3.65;;;;;;;;;;4969256;28;20046;-70
2023/04/04 03:51:03;;;;;;;5.93;3.33;;;;;;;;;;4970380;28;20056;-69
2023/04/04 03:53:29;;;;;;;6.90;3.80;;;;;;;;;;4986826;28;20495;-69
2023/04/04 03:55:56;;;;;;;8.35;3.70;;;;;;;;;;4972419;28;20050;-71
2023/04/04 03:58:22;;;;;;;7.10;4.53;;;;;;;;;;4966496;28;20056;-69
2023/04/04 04:00:48;;;;;;;11.07;4.22;;;;;;;;;;4965788;28;20047;-69
2023/04/04 04:03:14;;;;;;;7.30;4.35;;;;;;;;;;4979848;28;20688;-69
2023/04/04 04:05:41;;;;;;;5.35;3.60;;;;;;;;;;4972368;28;20149;-70
2023/04/04 04:08:07;;;;;;;9.25;4.28;;;;;;;;;;4978326;28;20088;-70
2023/04/04 04:10:33;;;;;;;4.85;3.63;;;;;;;;;;4971292;28;20556;-69
2023/04/04 04:13:00;;;;;;;5.47;3.75;;;;;;;;;;4973798;28;20133;-69
2023/04/04 04:15:26;;;;;;;6.97;3.90;;;;;;;;;;4975774;28;20057;-70
2023/04/04 04:17:52;;;;;;;7.75;3.95;;;;;;;;;;4978797;28;20062;-69
2023/04/04 04:20:18;;;;;;;6.13;4.22;;;;;;;;;;4981487;28;20763;-70
2023/04/04 04:22:47;;;;;;;4.90;3.47;;;;;;;;;;4975706;28;20050;-69
2023/04/04 04:25:13;;;;;;;5.95;3.15;;;;;;;;;;4976843;28;20132;-69
2023/04/04 04:27:43;;;;;;;7.30;3.33;;;;;;;;;;4982668;28;20053;-69
2023/04/04 04:30:09;;;;;;;4.43;3.53;;;;;;;;;;4971239;28;20054;-69
2023/04/04 04:32:35;;;;;;;7.25;4.20;;;;;;;;;;4974748;28;20049;-69
2023/04/04 04:35:05;;;;;;;5.07;3.65;;;;;;;;;;4973248;28;20054;-69
2023/04/04 04:37:31;;;;;;;9.63;4.07;;;;;;;;;;4975846;28;20137;-70
2023/04/04 04:39:57;;;;;;;6.22;3.92;;;;;;;;;;4987551;28;20069;-71
2023/04/04 04:42:26;;;;;;;8.77;4.05;;;;;;;;;;4991617;28;20806;-69
2023/04/04 04:44:52;;;;;;;5.75;3.40;;;;;;;;;;4977278;28;20145;-71
2023/04/04 04:47:18;;;;;;;7.57;3.60;;;;;;;;;;4983421;28;20476;-69
2023/04/04 04:49:46;;;;;;;9.15;4.05;;;;;;;;;;4984334;28;20064;-69
2023/04/04 04:52:12;;;;;;;6.25;3.80;;;;;;;;;;4982221;28;20050;-69
2023/04/04 04:54:38;;;;;;;8.23;4.20;;;;;;;;;;4979050;28;20051;-69
2023/04/04 04:57:05;;;;;;;6.80;4.38;;;;;;;;;;4974768;28;20527;-69
2023/04/04 04:59:31;;;;;;;8.88;4.60;;;;;;;;;;4995816;28;20069;-70
2023/04/04 05:01:57;;;;;;;9.38;4.20;;;;;;;;;;4978742;28;20060;-70
2023/04/04 05:04:23;;;;;;;7.88;4.55;;;;;;;;;;4974648;28;20052;-69
2023/04/04 05:06:49;;;;;;;8.52;4.80;;;;;;;;;;4982554;28;20082;-69
2023/04/04 05:09:15;;;;;;;7.72;3.97;;;;;;;;;;4973737;28;20136;-69
2023/04/04 05:11:41;;;;;;;7.22;4.43;;;;;;;;;;4975102;28;20906;-69
2023/04/04 05:14:10;;;;;;;8.52;4.53;;;;;;;;;;4983481;28;20057;-69
2023/04/04 05:16:35;;;;;;;8.15;4.72;;;-0.30;99.90;;;;;;4981623;28;20510;-69
2023/04/04 05:19:02;;;;;;;5.65;4.60;;;;;;;;;;4977456;28;20089;-70
2023/04/04 05:21:28;;;;;;;6.80;4.40;;;;;;;;;;4971045;28;20133;-70
2023/04/04 05:23:54;;;;;;;9.93;4.00;;;;;;;;;;4982244;28;20049;-69
2023/04/04 05:26:20;;;;;;;6.07;3.70;;;;;;;;;;4979053;28;20127;-69
2023/04/04 05:28:46;;;;;;;6.50;4.22;;;;;;;;;;4994513;28;20057;-69
2023/04/04 05:31:12;;;;;;;15.10;8.30;;;;;;;;;;4989312;28;20124;-70
2023/04/04 05:33:38;;;;;;;23.42;9.00;;;;;;;;;;4979078;28;20124;-69
2023/04/04 05:36:04;;;;;;;12.10;5.30;;;;;;;;;;4977109;28;20053;-69
2023/04/04 05:38:31;;;;;;;9.43;4.75;;;;;;;;;;4973032;28;20508;-70
2023/04/04 05:40:57;;;;;;;7.45;3.78;;;;;;;;;;4988744;28;20045;-70
2023/04/04 05:43:23;;;;;;;6.22;3.80;;;;;;;;;;4979687;28;20133;-69
2023/04/04 05:45:49;;;;;;;6.18;3.67;;;;;;;;;;4974614;28;20038;-70
2023/04/04 05:48:15;;;;;;;10.73;4.38;;;;;;;;;;4971983;28;20133;-69
2023/04/04 05:50:44;;;;;;;7.13;3.80;;;;;;;;;;4970135;28;20516;-69
2023/04/04 05:53:10;;;;;;;7.13;4.38;;;;;;;;;;4984138;28;20053;-69
2023/04/04 05:55:36;;;;;;;9.32;4.28;;;;;;;;;;4983770;28;20045;-69
2023/04/04 05:58:02;;;;;;;6.15;4.60;;;;;;;;;;4979703;28;20448;-70
2023/04/04 06:00:28;;;;;;;9.20;4.88;;;;;;;;;;4970952;28;20104;-69
2023/04/04 06:02:58;;;;;;;8.00;4.30;;;;;;;;;;4978390;28;20054;-70
2023/04/04 06:05:24;;;;;;;7.68;4.57;;;;;;;;;;4978981;28;20049;-69
2023/04/04 06:07:50;;;;;;;11.05;4.88;;;;;;;;;;4976623;28;20547;-70
2023/04/04 06:10:16;;;;;;;9.63;4.15;;;;;;;;;;4969525;28;20138;-71
2023/04/04 06:12:42;;;;;;;10.25;4.28;;;;;;;;;;4974715;28;20508;-69
2023/04/04 06:15:08;;;;;;;7.07;4.53;;;;;;;;;;4981727;28;20046;-69
2023/04/04 06:17:35;;;;;;;6.00;3.80;;;;;;;;;;4995989;28;20069;-70
2023/04/04 06:20:00;;;;;;;5.10;4.47;;;;;;;;;;4988530;28;20050;-70
2023/04/04 06:22:26;;;;;;;6.05;3.78;;;;;;;;;;4991638;28;20066;-67
2023/04/04 06:24:52;;;;;;;7.70;4.57;;;;;;;;;;4997114;28;20038;-69
2023/04/04 06:27:18;;;;;;;7.50;4.15;;;;;;;;;;4998416;28;20111;-69
2023/04/04 06:29:45;;;;;;;4.70;3.60;;;;;;;;;;4974932;28;20057;-72
2023/04/04 06:32:12;;;;;;;8.05;4.10;;;;;;;;;;4982003;28;20096;-71
2023/04/04 06:34:38;;;;;;;5.40;3.60;;;;;;;;;;4981771;28;20487;-71
2023/04/04 06:37:04;;;;;;;6.32;3.33;;;;;;;;;;4981091;28;20050;-71
2023/04/04 06:39:30;;;;;;;5.38;3.13;;;;;;;;;;4975726;28;20727;-71
2023/04/04 06:41:56;;;;;;;6.75;3.10;;;;;;;;;;4995482;28;20056;-72
2023/04/04 06:44:22;;;;;;;6.63;3.95;;;;;;;;;;4975482;28;20061;-72
2023/04/04 06:46:48;;;;;;;4.97;3.50;;;10.10;99.90;;;;;;4977005;28;20116;-72
2023/04/04 06:49:14;;;;;;;5.88;3.47;;;;;;;;;;4994465;28;20468;-72
2023/04/04 06:55:22;;;;;;;4.57;2.95;;;;;;;;;;4996153;28;20073;-72
2023/04/04 06:57:48;;;;;;;3.70;2.75;;;;;;;;;;4982307;28;20065;-73
2023/04/04 07:00:14;;;;;;;5.22;2.95;;;8.60;99.90;;;;;;4973026;28;20046;-72
2023/04/04 07:02:40;;;;;;;4.25;3.10;;;;;;;;;;4985973;28;20038;-73
2023/04/04 07:05:06;;;;;;;5.97;3.05;;;7.90;99.90;;;;;;4984615;28;20045;-73
2023/04/04 07:07:32;;;;;;;7.85;3.38;;;;;;;;;;4975764;28;20045;-73
2023/04/04 07:09:58;;;;;;;6.60;2.65;;;;;;;;;;4989556;28;20038;-73
2023/04/04 07:12:24;;;;;;;3.42;2.95;;;;;;;;;;4979295;28;20594;-72
2023/04/04 07:14:50;;;;;;;3.78;2.42;;;;;;;;;;4984081;28;20042;-72
2023/04/04 07:17:16;;;;;;;4.05;3.08;;;;;;;;;;4981738;28;20766;-72
2023/04/04 07:19:42;;;;;;;4.30;2.50;;;9.50;99.90;;;;;;4996630;28;20049;-72
2023/04/04 07:22:08;;;;;;;6.68;2.50;;;;;;;;;;4981085;28;20080;-73
2023/04/04 07:24:34;;;;;;;5.90;3.30;;;;;;;;;;4984524;28;20041;-71
2023/04/04 07:27:00;;;;;;;3.50;2.67;;;;;;;;;;4986231;28;20676;-71
2023/04/04 07:29:26;;;;;;;4.00;2.35;;;;;;;;;;4999868;28;20074;-71
2023/04/04 07:31:52;;;;;;;6.28;3.00;;;;;;;;;;4983045;28;20042;-71
2023/04/04 07:34:18;;;;;;;3.92;3.10;;;11.00;99.90;;;;;;4975923;28;20058;-72
2023/04/04 07:36:44;;;;;;;5.22;2.53;;;10.50;99.90;;;;;;4980908;28;20046;-70
2023/04/04 07:39:09;;;;;;;6.35;2.58;;;10.50;99.90;;;;;;4974459;28;20057;-70
2023/04/04 07:41:35;;;;;;;5.07;2.65;;;;;;;;;;4973104;28;20057;-71
2023/04/04 07:44:01;;;;;;;6.15;2.92;;;;;;;;;;4997853;28;20034;-75
2023/04/04 07:46:27;;;;;;;3.75;2.78;;;;;;;;;;4978958;28;20100;-71
2023/04/04 07:48:53;;;;;;;5.63;2.75;;;;;;;;;;4988242;28;20050;-72
2023/04/04 07:51:27;;;;;;;4.40;2.17;;;;;;;;;;4975579;28;20120;-71
2023/04/04 07:53:53;;;;;;;6.57;2.45;;;;;;;;;;4976389;28;20054;-71
2023/04/04 07:56:20;;;;;;;4.40;2.30;;;;;;;;;;4985851;28;20104;-71
2023/04/04 07:58:46;;;;;;;4.90;2.42;;;;;;;;;;4975569;28;20058;-71
2023/04/04 08:01:12;;;;;;;4.28;2.50;;;;;;;;;;4979987;28;20045;-71
2023/04/04 08:03:38;;;;;;;3.75;2.30;;;13.50;99.90;;;;;;4997476;28;20616;-70
2023/04/04 08:06:04;;;;;;;7.18;2.53;;;;;;;;;;4978882;28;20046;-70
2023/04/04 08:11:52;;;;;;;4.63;2.03;;;;;;;;;;4996838;28;20039;-71
2023/04/04 08:14:18;;;;;;;3.75;2.22;;;;;;;;;;4976372;28;20050;-71
2023/04/04 08:16:45;;;;;;;5.88;2.47;;;;;;;;;;4979352;28;20575;-71
2023/04/04 08:19:11;;;;;;;5.95;2.28;;;;;;;;;;4971904;28;20061;-70
2023/04/04 08:21:37;;;;;;;4.82;2.20;;;;;;;;;;4975838;28;20060;-70
2023/04/04 08:24:03;;;;;;;4.82;2.20;;;;;;;;;;4983939;28;20034;-70
2023/04/04 08:26:29;;;;;;;6.78;2.42;;;;;;;;;;5000755;28;20038;-70
2023/04/04 08:28:55;;;;;;;2.90;2.50;;;10.50;99.90;;;;;;4996426;28;20049;-71
2023/04/04 08:31:21;;;;;;;2.45;1.75;;;10.40;99.90;;;;;;5005606;28;20041;-71
2023/04/04 08:33:46;;;;;;;6.32;2.50;;;;;;;;;;4984547;28;20084;-70
2023/04/04 08:36:12;;;;;;;5.68;2.38;;;;;;;;;;4999188;28;20069;-72
2023/04/04 08:38:38;;;;;;;6.20;2.58;;;;;;;;;;4981831;28;20046;-70
2023/04/04 08:41:04;;;;;;;3.25;2.00;;;;;;;;;;4980866;28;20073;-70
2023/04/04 08:43:34;;;;;;;3.75;2.13;;;;;;;;;;4983453;28;20479;-70
2023/04/04 08:46:01;;;;;;;6.00;2.25;;;9.90;99.90;;;;;;4990613;28;20137;-71
2023/04/04 08:48:29;;;;;;;3.53;1.92;;;10.30;99.90;;;;;;4976424;28;20042;-70
2023/04/04 08:50:58;;;;;;;3.30;2.00;;;10.20;99.90;;;;;;4964503;28;20088;-71
2023/04/04 08:53:25;;;;;;;6.50;2.83;;;;;;;;;;4995430;28;20090;-70
2023/04/04 08:55:53;;;;;;;4.40;2.20;;;10.50;99.90;;;;;;4985879;28;20120;-70
2023/04/04 08:58:18;;;;;;;3.40;2.38;;;;;;;;;;4980557;28;20053;-71
2023/04/04 09:00:44;;;;;;;3.80;1.90;;;;;;;;;;4987018;28;20050;-71
2023/04/04 09:03:28;;;;;;;3.97;1.80;;;11.00;99.90;;;;;;4986801;28;20120;-71
2023/04/04 09:05:57;;;;;;;4.80;1.92;;;11.10;99.90;;;;;;4985200;28;20049;-71
2023/04/04 09:08:23;;;;;;;5.15;1.63;;;11.30;99.90;;;;;;4972260;28;20038;-71
2023/04/04 09:10:50;;;;;;;3.05;1.52;;;11.20;99.90;;;;;;4986411;28;20419;-71
2023/04/04 09:13:16;;;;;;;4.05;1.70;;;11.50;99.90;;;;;;4984292;28;20057;-71
2023/04/04 09:15:49;;;;;;;6.32;2.72;;;11.70;99.90;;;;;;4999215;28;20042;-71
2023/04/04 09:18:15;;;;;;;4.13;1.80;;;11.90;99.90;;;;;;4978399;28;20064;-71
2023/04/04 09:20:50;;;;;;;3.05;1.85;;;12.20;99.90;;;;;;4986243;28;20532;-71
2023/04/04 09:23:19;;;;;;;6.93;1.90;;;12.10;99.90;;;;;;4977000;28;20046;-71
2023/04/04 09:25:52;;;;;;;4.47;1.95;;;12.00;99.90;;;;;;4996518;28;20041;-71
2023/04/04 09:28:18;;;;;;;3.70;1.90;;;12.10;99.90;;;;;;4978504;28;20388;-71
2023/04/04 09:30:47;;;;;;;5.97;2.10;;;13.30;99.90;;;;;;4970964;28;20829;-71
2023/04/04 09:33:14;;;;;;;6.28;1.98;;;12.70;99.90;;;;;;4974219;28;20049;-71
2023/04/04 09:35:53;;;;;;;4.07;1.70;;;12.70;99.90;;;;;;4978183;28;20050;-71
2023/04/04 09:38:24;;;;;;;7.60;2.00;;;12.90;99.90;;;;;;4978273;28;20046;-72
2023/04/04 09:40:51;;;;;;;2.17;1.70;;;;;;;;;;4996589;28;20136;-72
2023/04/04 09:43:18;;;;;;;4.18;1.80;;;12.60;99.90;;;;;;4970592;28;20068;-71
2023/04/04 09:45:44;;;;;;;7.68;2.40;;;12.70;99.90;;;;;;4981340;28;20126;-72
2023/04/04 09:48:11;;;;;;;4.45;3.05;;;;;;;;;;5003964;28;20050;-72
2023/04/04 09:50:44;;;;;;;3.85;2.15;;;13.20;99.90;;;;;;5000071;28;20076;-71
2023/04/04 09:53:18;;;;;;;4.07;2.10;;;13.30;99.90;;;;;;4994265;28;20057;-71
2023/04/04 09:55:54;;;;;;;4.32;2.20;;;13.40;99.90;;;;;;4979214;28;20046;-71
2023/04/04 09:58:24;;;;;;;4.15;2.33;;;13.20;99.90;;;;;;4979940;28;20049;-71
2023/04/04 10:00:52;;;;;;;8.20;2.72;;;13.40;99.90;;;;;;4982882;28;20570;-71
2023/04/04 10:03:20;;;;;;;4.25;2.58;;;13.10;99.90;;;;;;4988055;28;20046;-71
2023/04/04 10:05:46;;;;;;;6.55;2.33;;;;;;;;;;4993823;28;20042;-71
2023/04/04 10:08:21;;;;;;;7.18;2.80;;;13.00;99.90;;;;;;4979446;28;20056;-71
2023/04/04 10:11:08;;;;;;;7.20;3.05;;;13.00;99.90;;;;;;4992977;28;20042;-71
2023/04/04 10:13:35;;;;;;;5.32;2.88;;;13.00;99.90;;;;;;4981182;28;20076;-71
2023/04/04 10:16:03;;;;;;;6.28;2.70;;;13.20;99.90;;;;;;4981667;28;20120;-71
2023/04/04 10:18:30;;;;;;;5.07;2.20;;;13.20;99.90;;;;;;4974868;28;20439;-72
2023/04/04 10:21:01;;;;;;;5.05;2.90;;;13.30;99.90;;;;;;4969457;28;20054;-71
2023/04/04 10:23:27;;;;;;;6.70;2.88;;;13.40;99.90;;;;;;4994675;28;20117;-71
2023/04/04 10:25:57;;;;;;;3.33;2.40;;;13.40;99.90;;;;;;4983054;28;20858;-71
2023/04/04 10:28:25;;;;;;;2.90;2.00;;;13.30;99.90;;;;;;4967784;28;20959;-71
2023/04/04 10:31:08;;;;;;;5.30;2.47;;;13.50;99.90;;;;;;4989942;28;20093;-71
2023/04/04 10:33:58;;;;;;;2.80;2.22;;;13.40;99.90;;;;;;4979390;28;20186;-71
2023/04/04 10:36:32;;;;;;;4.10;2.20;;;12.90;99.90;;;;;;4979389;28;20058;-71
2023/04/04 10:39:12;;;;;;;3.28;1.98;;;12.90;99.90;;;;;;4990575;28;20500;-72
2023/04/04 10:41:39;;;;;;;4.95;2.78;;;12.80;99.90;;;;;;4969971;28;20543;-71
2023/04/04 10:44:19;;;;;;;4.18;2.40;;;12.80;99.90;;;;;;4976083;28;20488;-71
2023/04/04 10:46:47;;;;;;;4.53;2.25;;;;;;;;;;4973984;28;20050;-71
2023/04/04 10:49:14;;;;;;;4.65;2.30;;;12.60;99.90;;;;;;4971466;28;20042;-71
2023/04/04 10:51:41;;;;;;;5.05;2.05;;;12.40;99.90;;;;;;4973774;28;20439;-71
2023/04/04 10:54:07;;;;;;;3.25;2.05;;;;;;;;;;4976571;28;20571;-71
2023/04/04 10:56:33;;;;;;;4.90;2.33;;;12.40;99.90;;;;;;4979413;28;20045;-72
2023/04/04 10:59:12;;;;;;;3.80;1.80;;;12.30;99.90;;;;;;4980563;28;20093;-71
2023/04/04 11:01:58;;;;;;;7.40;2.28;;;12.50;99.90;;;;;;4988772;28;20100;-72
2023/04/04 11:04:36;;;;;;;6.63;2.15;;;12.60;99.90;;;;;;4980577;28;20046;-71
2023/04/04 11:07:18;;;;;;;4.60;1.85;;;12.60;99.90;;;;;;4982116;28;20495;-71
2023/04/04 11:09:54;;;;;;;2.38;1.95;;;12.70;99.90;;;;;;4987347;28;20117;-71
2023/04/04 11:12:32;;;;;;;4.43;2.70;;;12.40;99.90;;;;;;4977011;28;20056;-71
2023/04/04 11:14:58;;;;;;;5.47;2.58;;;;;;;;;;4995348;28;20026;-72
2023/04/04 11:17:59;;;;;;;3.88;2.40;;;12.50;99.90;;;;;;4979251;28;20461;-71
2023/04/04 11:20:28;;;;;;;4.63;2.47;;;12.50;99.90;;;;;;4969201;28;20061;-71
2023/04/04 11:23:21;;;;;;;4.43;2.55;;;12.60;99.90;;;;;;4991233;28;20038;-72
2023/04/04 11:25:54;;;;;;;4.55;2.60;;;12.60;99.90;;;;;;4976894;28;20053;-72
2023/04/04 11:28:32;;;;;;;3.90;2.50;;;13.00;99.90;;;;;;4980819;28;20116;-72
2023/04/04 11:31:14;;;;;;;3.28;2.00;;;13.00;99.90;;;;;;4969627;28;20056;-71
2023/04/04 11:33:59;;;;;;;5.47;2.55;;;13.20;99.90;;;;;;4994411;28;20046;-71
2023/04/04 11:36:36;;;;;;;3.65;2.25;;;13.10;99.90;;;;;;4978671;28;20042;-71
2023/04/04 11:39:08;;;;;;;5.20;2.15;;;13.20;99.90;;;;;;4993262;28;20133;-72
2023/04/04 11:42:09;;;;;;;4.82;2.40;;;12.90;99.90;;;;;;4990204;28;20038;-72
2023/04/04 11:44:50;;;;;;;4.68;2.28;;;12.60;99.90;;;;;;4986100;28;20045;-72
2023/04/04 11:47:21;;;;;;;5.28;2.20;;;12.50;99.90;;;;;;4990645;28;20050;-71
2023/04/04 11:49:48;;;;;;;7.93;3.25;;;12.80;99.90;;;;;;4975458;28;20717;-72
2023/04/04 11:52:16;;;;;;;4.57;2.63;;;12.60;99.90;;;;;;4986203;28;20053;-72
2023/04/04 11:54:44;;;;;;;6.38;2.38;;;12.30;99.90;;;;;;4998614;28;20044;-71
2023/04/04 11:57:14;;;;;;;5.25;2.28;;;12.10;99.90;;;;;;4984624;28;20037;-71
2023/04/04 11:59:46;;;;;;;6.13;2.75;;;12.10;99.90;;;;;;4981071;28;20042;-71
2023/04/04 12:02:18;;;;;;;6.07;2.70;;;12.00;99.90;;;;;;4984062;28;20069;-71
2023/04/04 12:04:45;;;;;;;4.78;2.15;;;11.80;99.90;;;;;;4980913;28;20092;-72
2023/04/04 12:07:12;;;;;;;10.20;3.13;;;12.00;99.90;;;;;;4982413;28;20048;-71
2023/04/04 12:09:38;;;;;;;6.43;2.83;;;;;;;;;;4986179;28;20076;-72
2023/04/04 12:12:06;;;;;;;6.13;2.50;;;;;;;;;;4982341;28;20046;-72
2023/04/04 12:14:32;;;;;;;3.15;2.08;;;;;;;;;;4984073;28;20047;-71
2023/04/04 12:16:58;;;;;;;4.55;2.13;;;;;;;;;;4985363;28;20041;-72
2023/04/04 12:19:26;;;;;;;6.95;2.33;;;12.40;99.90;;;;;;4977993;28;20054;-72
2023/04/04 12:21:52;;;;;;;5.82;2.78;;;12.50;99.90;;;;;;4980461;28;20041;-72
2023/04/04 12:24:19;;;;;;;4.28;2.50;;;12.30;99.90;;;;;;4985712;28;20052;-72
2023/04/04 12:26:47;;;;;;;6.68;2.78;;;12.30;99.90;;;;;;4982149;28;20034;-72
2023/04/04 12:29:15;;;;;;;6.40;2.72;;;12.50;99.90;;;;;;4979871;28;20049;-70
2023/04/04 12:31:43;;;;;;;5.25;2.67;;;12.50;99.90;;;;;;4982689;28;20100;-72
2023/04/04 12:34:22;;;;;;;4.20;2.30;;;12.60;99.90;;;;;;4985307;28;20046;-73
2023/04/04 12:36:51;;;;;;;5.38;2.75;;;12.60;99.90;;;;;;4979350;28;20504;-72
2023/04/04 12:39:17;;;;;;;6.63;2.60;;;;;;;;;;4988488;28;20189;-71
2023/04/04 12:41:50;;;;;;;3.83;2.60;;;12.60;99.90;;;;;;4985159;28;20722;-73
2023/04/04 12:44:34;;;;;;;3.40;2.00;;;12.60;99.90;;;;;;4999735;28;20042;-73
2023/04/04 12:47:02;;;;;;;7.72;3.28;;;12.40;99.90;;;;;;4980996;28;20046;-72
2023/04/04 12:49:29;;;;;;;7.20;3.03;;;12.20;99.90;;;;;;4977781;28;20054;-73
2023/04/04 12:51:55;;;;;;;3.65;2.55;;;12.00;99.90;;;;;;5002645;28;20084;-73
2023/04/04 12:54:28;;;;;;;6.13;2.97;;;11.70;99.90;;;;;;4979682;28;20067;-72
2023/04/04 12:56:58;;;;;;;4.47;2.38;;;12.00;99.90;;;;;;4996148;28;20054;-73
2023/04/04 12:59:31;;;;;;;4.20;2.63;;;11.70;99.90;;;;;;4982014;28;20152;-73
2023/04/04 13:01:59;;;;;;;3.60;2.47;;;11.90;99.90;;;;;;4977670;28;20480;-72
2023/04/04 13:04:25;;;;;;;9.05;2.78;;;11.90;99.90;;;;;;4994648;28;20046;-73
2023/04/04 13:06:51;;;;;;;5.57;2.97;;;;;;;;;;4978319;28;20065;-72
2023/04/04 13:09:19;;;;;;;7.75;3.13;;;11.90;99.90;;;;;;4993313;28;20038;-72
2023/04/04 13:12:00;;;;;;;7.35;2.67;;;12.00;99.90;;;;;;4994919;28;20057;-72
2023/04/04 13:14:28;;;;;;;4.22;2.60;;;11.80;99.90;;;;;;4989108;28;20511;-73
2023/04/04 13:17:04;;;;;;;5.43;3.30;;;;;;;;;;4984724;28;20046;-72
2023/04/04 13:19:30;;;;;;;5.45;2.58;;;11.70;99.90;;;;;;4984249;28;20508;-73
2023/04/04 13:21:56;;;;;;;6.28;2.92;;;;;;;;;;4986550;28;20057;-73
2023/04/04 13:24:22;;;;;;;4.43;2.65;;;;;;;;;;4981536;28;20038;-73
2023/04/04 13:26:48;;;;;;;6.82;2.65;;;;;;;;;;5001294;28;20033;-73
2023/04/04 13:29:14;;;;;;;7.13;3.25;;;;;;;;;;4969737;28;20121;-73
2023/04/04 13:31:41;;;;;;;6.68;2.70;;;;;;;;;;4995201;28;20048;-73
2023/04/04 13:34:07;;;;;;;4.13;2.65;;;;;;;;;;4982117;28;20042;-72
2023/04/04 13:36:32;;;;;;;6.50;2.55;;;11.50;99.90;;;;;;4978387;28;20484;-72
2023/04/04 13:38:58;;;;;;;4.50;2.45;;;;;;;;;;4978632;28;20481;-72
2023/04/04 13:41:24;;;;;;;4.55;3.03;;;;;;;;;;4983464;28;20137;-73
2023/04/04 13:43:51;;;;;;;4.40;2.55;;;11.50;99.90;;;;;;4980335;28;20452;-73
2023/04/04 13:46:16;;;;;;;6.78;3.05;;;11.60;99.90;;;;;;4986396;28;20084;-73
2023/04/04 13:48:42;;;;;;;12.50;3.42;;;;;;;;;;4978064;28;20113;-73
2023/04/04 13:51:08;;;;;;;4.88;3.10;;;11.40;99.90;;;;;;4983545;28;20489;-73
2023/04/04 13:53:34;;;;;;;6.10;2.72;;;;;;;;;;4974822;28;20058;-73
2023/04/04 13:56:00;;;;;;;6.50;3.40;;;;;;;;;;4972239;28;20049;-73
2023/04/04 13:58:26;;;;;;;3.65;2.63;;;;;;;;;;4976483;28;20050;-73
2023/04/04 14:00:52;;;;;;;7.72;2.90;;;11.20;99.90;;;;;;4971912;28;20067;-73
2023/04/04 14:03:18;;;;;;;6.28;2.60;;;;;;;;;;5003921;28;20037;-72
2023/04/04 14:05:43;;;;;;;5.55;2.75;;;11.30;99.90;;;;;;4981885;28;20042;-72
2023/04/04 14:08:09;;;;;;;6.32;2.60;;;;;;;;;;4977218;28;20069;-74
2023/04/04 14:10:35;;;;;;;7.30;3.20;;;;;;;;;;4970783;28;20054;-70
2023/04/04 14:13:02;;;;;;;4.53;2.80;;;;;;;;;;4978326;28;20495;-70